createdAt,value
2024-01-21T09:58:46.368Z,97576.03
2024-01-21T10:01:13.566Z,97563.09
2024-01-21T10:03:40.624Z,97559.91
2024-01-21T10:06:07.793Z,97551.38
2024-01-21T10:08:38.258Z,97561.53
2024-01-21T10:11:05.308Z,97554.31
2024-01-21T10:13:32.761Z,97539.84
2024-01-21T10:15:59.638Z,97567.25
2024-01-21T10:18:28.151Z,97536.59
2024-01-21T10:20:59.031Z,97558.22
2024-01-21T10:23:27.243Z,97545.63
2024-01-21T10:25:53.854Z,97550.28
2024-01-21T10:28:21.683Z,97548.00
2024-01-21T10:30:48.824Z,97536.66
2024-01-21T10:33:16.082Z,97564.56
2024-01-21T10:35:43.390Z,97551.28
2024-01-21T10:38:14.603Z,97536.31
2024-01-21T10:40:45.254Z,97586.25
2024-01-21T10:43:16.093Z,97542.16
2024-01-21T10:45:46.954Z,97544.41
2024-01-21T10:48:15.043Z,97515.28
2024-01-21T10:50:43.364Z,97564.94
2024-01-21T10:53:14.055Z,97568.25
2024-01-21T10:55:41.789Z,97565.28
2024-01-21T10:58:09.875Z,97571.16
2024-01-21T11:00:38.248Z,97568.38
2024-01-21T11:03:28.624Z,97572.84
2024-01-21T11:06:04.288Z,97573.50
2024-01-21T11:08:31.279Z,97535.22
2024-01-21T11:11:01.827Z,97541.66
2024-01-21T11:13:45.131Z,97563.03
2024-01-21T11:16:12.882Z,97512.69
2024-01-21T11:18:39.693Z,97552.72
2024-01-21T11:21:06.509Z,97573.06
2024-01-21T11:23:34.653Z,97549.59
2024-01-21T11:26:01.528Z,97574.31
2024-01-21T11:28:29.706Z,97556.41
2024-01-21T11:31:03.983Z,97565.03
2024-01-21T11:33:31.512Z,97539.16
2024-01-21T11:35:59.937Z,97556.66
2024-01-21T11:38:30.509Z,97552.91
2024-01-21T11:41:08.430Z,97538.81
2024-01-21T11:43:35.085Z,97566.31
2024-01-21T11:46:04.033Z,97533.59
2024-01-21T11:48:31.789Z,97553.72
2024-01-21T11:50:58.844Z,97509.91
2024-01-21T11:53:25.535Z,97537.72
2024-01-21T11:55:52.890Z,97504.59
2024-01-21T11:58:20.122Z,97515.88
2024-01-21T12:00:48.333Z,97476.34
2024-01-21T12:03:15.477Z,97519.72
2024-01-21T12:05:42.781Z,97507.25
2024-01-21T12:08:10.347Z,97505.69
2024-01-21T12:10:37.073Z,97508.63
2024-01-21T12:13:06.400Z,97509.81
2024-01-21T12:15:37.377Z,97517.28
2024-01-21T12:18:04.734Z,97417.88
2024-01-21T12:20:31.471Z,97487.38
2024-01-21T12:22:58.379Z,97529.72
2024-01-21T12:25:25.653Z,97515.94
2024-01-21T12:28:12.710Z,97530.84
2024-01-21T12:30:39.476Z,97543.56
2024-01-21T12:33:06.250Z,97513.84
2024-01-21T12:35:33.331Z,97536.34
2024-01-21T12:38:02.715Z,97496.25
2024-01-21T12:40:29.634Z,97552.38
2024-01-21T12:42:56.277Z,97545.53
2024-01-21T12:45:23.415Z,97536.28
2024-01-21T12:47:50.256Z,97481.88
2024-01-21T12:50:17.177Z,97508.50
2024-01-21T12:52:43.859Z,97526.63
2024-01-21T12:55:11.694Z,97532.41
2024-01-21T12:57:38.654Z,97544.09
2024-01-21T13:00:06.090Z,97514.97
2024-01-21T13:02:32.725Z,97537.44
2024-01-21T13:04:59.373Z,97481.78
2024-01-21T13:07:26.126Z,97549.94
2024-01-21T13:09:52.920Z,97530.22
2024-01-21T13:12:19.890Z,97551.28
2024-01-21T13:14:46.698Z,97539.03
2024-01-21T13:17:13.427Z,97527.94
2024-01-21T13:19:40.253Z,97506.03
2024-01-21T13:22:08.233Z,97502.31
2024-01-21T13:24:36.199Z,97538.34
2024-01-21T13:27:11.002Z,97511.16
2024-01-21T13:29:56.212Z,97522.69
2024-01-21T13:32:24.489Z,97522.06
2024-01-21T13:34:51.627Z,97546.22
2024-01-21T13:37:19.922Z,97519.56
2024-01-21T13:39:47.856Z,97513.00
2024-01-21T13:42:14.569Z,97518.91
2024-01-21T13:44:41.173Z,97550.25
2024-01-21T13:47:07.861Z,97493.94
2024-01-21T13:49:36.727Z,97513.13
2024-01-21T13:52:03.799Z,97506.13
2024-01-21T13:54:30.765Z,97522.59
2024-01-21T13:56:57.497Z,97541.16
2024-01-21T13:59:24.076Z,97532.75
2024-01-21T14:01:57.831Z,97483.78
2024-01-21T14:04:32.468Z,97474.31
2024-01-21T14:06:59.437Z,97477.16
2024-01-21T14:09:26.214Z,97482.22
2024-01-21T14:11:52.842Z,97455.97
2024-01-21T14:14:19.648Z,97495.22
2024-01-21T14:16:46.259Z,97478.22
2024-01-21T14:19:13.205Z,97504.31
2024-01-21T14:21:40.152Z,97517.78
2024-01-21T14:24:07.255Z,97507.13
2024-01-21T14:26:36.708Z,97524.69
2024-01-21T14:29:13.893Z,97522.03
2024-01-21T14:31:41.773Z,97519.34
2024-01-21T14:34:12.916Z,97507.09
2024-01-21T14:36:41.131Z,97539.91
2024-01-21T14:39:07.800Z,97526.56
2024-01-21T14:41:34.502Z,97521.38
2024-01-21T14:44:01.821Z,97530.63
2024-01-21T14:46:28.520Z,97495.03
2024-01-21T14:48:55.346Z,97514.16
2024-01-21T14:51:22.155Z,97504.88
2024-01-21T14:53:48.767Z,97478.19
2024-01-21T14:56:15.508Z,97509.72
2024-01-21T14:58:43.117Z,97537.53
2024-01-21T15:01:09.880Z,97530.63
2024-01-21T15:03:36.710Z,97519.47
2024-01-21T15:06:03.612Z,97487.03
2024-01-21T15:08:30.234Z,97528.16
2024-01-21T15:10:59.805Z,97520.41
2024-01-21T15:13:28.391Z,97488.06
2024-01-21T15:15:55.344Z,97516.34
2024-01-21T15:18:30.333Z,97486.75
2024-01-21T15:21:01.117Z,97514.88
2024-01-21T15:23:27.727Z,97520.84
2024-01-21T15:25:55.777Z,97487.44
2024-01-21T15:28:22.497Z,97464.06
2024-01-21T15:30:49.623Z,97473.59
2024-01-21T15:33:16.494Z,97483.25
2024-01-21T15:35:43.262Z,97505.59
2024-01-21T15:38:11.388Z,97480.63
2024-01-21T15:40:38.151Z,97507.63
2024-01-21T15:43:05.711Z,97476.22
2024-01-21T15:45:32.436Z,97480.00
2024-01-21T15:47:59.223Z,97505.06
2024-01-21T15:50:26.065Z,97524.53
2024-01-21T15:52:52.876Z,97519.94
2024-01-21T15:55:20.815Z,97512.13
2024-01-21T15:57:47.740Z,97539.38
2024-01-21T16:00:14.775Z,97517.63
2024-01-21T16:02:41.490Z,97526.63
2024-01-21T16:05:08.499Z,97521.06
2024-01-21T16:07:35.093Z,97556.78
2024-01-21T16:10:01.943Z,97540.34
2024-01-21T16:12:29.779Z,97554.56
2024-01-21T16:14:56.813Z,97568.00
2024-01-21T16:17:23.479Z,97542.44
2024-01-21T16:19:50.883Z,97523.38
2024-01-21T16:22:18.835Z,97556.03
2024-01-21T16:24:47.385Z,97561.06
2024-01-21T16:27:19.869Z,97547.50
2024-01-21T16:29:53.450Z,97565.75
2024-01-21T16:32:20.323Z,97597.34
2024-01-21T16:34:55.691Z,97600.41
2024-01-21T16:37:27.361Z,97600.09
2024-01-21T16:39:55.648Z,97562.38
2024-01-21T16:42:22.810Z,97575.47
2024-01-21T16:44:51.408Z,97599.69
2024-01-21T16:47:18.389Z,97545.50
2024-01-21T16:49:45.123Z,97571.13
2024-01-21T16:52:16.764Z,97564.06
2024-01-21T16:54:44.291Z,97570.25
2024-01-21T16:57:11.046Z,97528.59
2024-01-21T16:59:39.504Z,97564.69
2024-01-21T17:02:18.847Z,97516.91
2024-01-21T17:04:46.684Z,97529.72
2024-01-21T17:07:13.634Z,97545.19
2024-01-21T17:09:44.997Z,97558.19
2024-01-21T17:12:37.457Z,97543.50
2024-01-21T17:15:05.241Z,97550.06
2024-01-21T17:17:32.099Z,97517.31
2024-01-21T17:19:59.317Z,97512.72
2024-01-21T17:22:26.678Z,97551.44
2024-01-21T17:24:53.362Z,97542.94
2024-01-21T17:27:20.782Z,97531.38
2024-01-21T17:29:47.488Z,97532.06
2024-01-21T17:32:14.342Z,97529.66
2024-01-21T17:34:41.324Z,97528.59
2024-01-21T17:37:08.104Z,97538.38
2024-01-21T17:39:34.840Z,97526.03
2024-01-21T17:42:08.771Z,97548.72
2024-01-21T17:44:36.092Z,97554.50
2024-01-21T17:47:02.775Z,97576.31
2024-01-21T17:49:30.368Z,97548.66
2024-01-21T17:51:57.028Z,97555.78
2024-01-21T17:54:23.706Z,97583.25
2024-01-21T17:56:50.366Z,97577.09
2024-01-21T17:59:17.240Z,97567.03
2024-01-21T18:01:45.106Z,97573.94
2024-01-21T18:04:12.120Z,97507.34
2024-01-21T18:06:39.718Z,97568.41
2024-01-21T18:09:07.501Z,97551.03
2024-01-21T18:11:35.255Z,97574.38
2024-01-21T18:14:02.353Z,97568.13
2024-01-21T18:16:28.958Z,97530.66
2024-01-21T18:18:55.796Z,97556.06
2024-01-21T18:21:24.101Z,97554.34
2024-01-21T18:23:50.974Z,97540.56
2024-01-21T18:26:17.923Z,97504.81
2024-01-21T18:28:46.339Z,97552.09
2024-01-21T18:31:13.876Z,97523.19
2024-01-21T18:33:40.884Z,97529.13
2024-01-21T18:36:08.321Z,97546.81
2024-01-21T18:38:35.093Z,97541.94
2024-01-21T18:41:01.733Z,97536.94
2024-01-21T18:43:28.852Z,97558.44
2024-01-21T18:45:55.711Z,97533.91
2024-01-21T18:48:22.500Z,97516.06
2024-01-21T18:50:49.282Z,97526.88
2024-01-21T18:53:15.905Z,97518.50
2024-01-21T18:55:43.837Z,97547.00
2024-01-21T18:58:15.267Z,97546.72
2024-01-21T19:00:47.812Z,97541.63
2024-01-21T19:03:14.557Z,97535.88
2024-01-21T19:05:41.367Z,97535.56
2024-01-21T19:08:08.640Z,97526.00
2024-01-21T19:10:35.366Z,97532.47
2024-01-21T19:13:02.192Z,97535.66
2024-01-21T19:15:30.937Z,97562.03
2024-01-21T19:17:57.641Z,97573.75
2024-01-21T19:20:24.491Z,97570.91
2024-01-21T19:22:51.299Z,97563.63
2024-01-21T19:25:18.073Z,97537.63
2024-01-21T19:27:44.780Z,97515.47
2024-01-21T19:30:12.262Z,97540.38
2024-01-21T19:32:39.035Z,97534.13
2024-01-21T19:35:06.426Z,97542.59
2024-01-21T19:37:33.075Z,97544.78
2024-01-21T19:39:59.735Z,97497.88
2024-01-21T19:42:26.447Z,97537.41
2024-01-21T19:44:53.164Z,97507.75
2024-01-21T19:47:19.762Z,97540.06
2024-01-21T19:49:46.429Z,97529.41
2024-01-21T19:52:13.063Z,97526.50
2024-01-21T19:54:39.794Z,97491.25
2024-01-21T19:57:06.467Z,97500.25
2024-01-21T19:59:33.293Z,97515.47
2024-01-21T20:01:59.993Z,97538.88
2024-01-21T20:04:26.832Z,97508.63
2024-01-21T20:06:53.786Z,97513.22
2024-01-21T20:09:23.448Z,97493.66
2024-01-21T20:11:50.109Z,97475.81
2024-01-21T20:14:16.873Z,97505.31
2024-01-21T20:16:43.530Z,97480.78
2024-01-21T20:19:10.233Z,97497.69
2024-01-21T20:21:38.707Z,97470.72
2024-01-21T20:24:07.154Z,97501.09
2024-01-21T20:26:33.813Z,97461.47
2024-01-21T20:29:00.480Z,97505.41
2024-01-21T20:31:27.038Z,97452.38
2024-01-21T20:33:56.171Z,97474.63
2024-01-21T20:36:22.988Z,97512.72
2024-01-21T20:38:50.007Z,97479.03
2024-01-21T20:41:17.870Z,97495.25
2024-01-21T20:43:47.480Z,97454.31
2024-01-21T20:46:16.862Z,97473.94
2024-01-21T20:48:44.723Z,97467.59
2024-01-21T20:51:11.893Z,97446.09
2024-01-21T20:53:38.822Z,97435.44
2024-01-21T20:56:08.103Z,97463.28
2024-01-21T20:58:35.803Z,97454.50
2024-01-21T21:01:09.976Z,97438.22
2024-01-21T21:03:40.964Z,97453.94
2024-01-21T21:06:07.766Z,97448.63
2024-01-21T21:08:34.692Z,97460.53
2024-01-21T21:11:02.803Z,97445.75
2024-01-21T21:13:30.209Z,97415.56
2024-01-21T21:15:57.137Z,97422.09
2024-01-21T21:18:24.520Z,97434.19
2024-01-21T21:20:51.330Z,97466.72
2024-01-21T21:23:18.001Z,97437.34
2024-01-21T21:25:44.654Z,97466.94
2024-01-21T21:28:12.071Z,97441.56
2024-01-21T21:30:38.711Z,97432.69
2024-01-21T21:33:05.693Z,97447.31
2024-01-21T21:35:34.000Z,97440.16
2024-01-21T21:38:00.762Z,97447.00
2024-01-21T21:40:27.555Z,97433.50
2024-01-21T21:42:54.182Z,97398.66
2024-01-21T21:45:23.115Z,97443.38
2024-01-21T21:47:51.510Z,97424.91
2024-01-21T21:50:18.356Z,97423.28
2024-01-21T21:52:45.230Z,97416.03
2024-01-21T21:55:11.873Z,97387.03
2024-01-21T21:57:38.948Z,97397.16
2024-01-21T22:00:07.939Z,97380.41
2024-01-21T22:02:35.251Z,97375.22
2024-01-21T22:05:02.263Z,97403.53
2024-01-21T22:07:29.376Z,97363.03
2024-01-21T22:09:56.556Z,97384.97
2024-01-21T22:12:23.563Z,97387.72
2024-01-21T22:14:50.304Z,97344.00
2024-01-21T22:17:17.673Z,97367.41
2024-01-21T22:19:44.719Z,97365.81
2024-01-21T22:22:11.562Z,97337.81
2024-01-21T22:24:41.676Z,97340.34
2024-01-21T22:27:08.461Z,97344.84
2024-01-21T22:29:35.287Z,97386.22
2024-01-21T22:32:02.833Z,97355.44
2024-01-21T22:34:29.493Z,97375.81
2024-01-21T22:36:56.149Z,97352.44
2024-01-21T22:39:22.767Z,97380.16
2024-01-21T22:41:49.522Z,97355.53
2024-01-21T22:44:16.113Z,97353.97
2024-01-21T22:46:43.300Z,97374.75
2024-01-21T22:49:10.182Z,97378.22
2024-01-21T22:51:37.351Z,97388.13
2024-01-21T22:54:04.587Z,97351.13
2024-01-21T22:56:31.349Z,97373.97
2024-01-21T22:58:57.979Z,97368.03
2024-01-21T23:01:24.681Z,97352.72
2024-01-21T23:03:51.396Z,97365.34
2024-01-21T23:06:18.671Z,97367.56
2024-01-21T23:08:45.334Z,97360.16
2024-01-21T23:11:12.721Z,97352.88
2024-01-21T23:13:40.321Z,97348.78
2024-01-21T23:16:07.641Z,97326.38
2024-01-21T23:18:34.378Z,97353.22
2024-01-21T23:21:01.247Z,97330.38
2024-01-21T23:23:27.907Z,97331.44
2024-01-21T23:25:54.590Z,97343.41
2024-01-21T23:28:21.272Z,97355.94
2024-01-21T23:30:48.141Z,97324.13
2024-01-21T23:33:15.173Z,97330.47
2024-01-21T23:35:42.988Z,97342.09
2024-01-21T23:38:09.685Z,97306.41
2024-01-21T23:40:36.321Z,97351.81
2024-01-21T23:43:03.011Z,97331.78
2024-01-21T23:45:29.914Z,97295.75
2024-01-21T23:47:56.568Z,97307.50
2024-01-21T23:50:23.359Z,97316.66
2024-01-21T23:52:50.231Z,97295.19
2024-01-21T23:55:18.467Z,97322.16
2024-01-21T23:57:45.171Z,97321.66
